Agios Georgios I — SX9857 — position and weather

sailwx.info

Track history (hours):
 
Tides and Currents Weather Stations Pressure Air Temp Water Temp Dewpoint Dewpoint Depression Visibility Wind Speed Wind Dir Waves Ship Positions

Agios Georgios I

Last reported at 2017-Apr-26 00:17 UTC. Time now 2017-Apr-26 15:49 UTC.
Position N 38°03' E 024°39'.

Length 59 m; draft 5 m.

Type: Ship (hazmat cat B). MMSI: 239912000.

Date/timePositionNaut miles runAvg speedWind from/ knotsBaromVisibWave heightAir tempDewpointWater temp
2017-Apr-26 00:17N 38°03' E 024°39'3 9.0
2017-Apr-25 23:58N 37°60' E 024°40'4 9.0
2017-Apr-25 23:30N 37°56' E 024°40'4 7.9
2017-Apr-25 23:00N 37°52' E 024°42'1 0.3
2017-Apr-25 17:40N 37°53' E 024°44'1 8.5
2017-Apr-25 17:30N 37°52' E 024°44'4 8.9
2017-Apr-25 17:00N 37°47' E 024°45'11 9.2
2017-Apr-25 15:46N 37°37' E 024°52'2 8.9
2017-Apr-25 15:30N 37°35' E 024°54'4 9.1
2017-Apr-25 15:00N 37°31' E 024°56'5 5.3
2017-Apr-25 14:00N 37°26' E 024°56'0 0.0
2017-Apr-25 13:30N 37°26' E 024°56'0 0.0
2017-Apr-25 13:00N 37°26' E 024°56'0 0.0
2017-Apr-25 12:30N 37°26' E 024°56'0 0.0
2017-Apr-25 12:00N 37°26' E 024°56'0 0.0
2017-Apr-25 11:28N 37°26' E 024°56'0 0.0
2017-Apr-25 10:59N 37°26' E 024°56'0 0.0
2017-Apr-25 10:30N 37°26' E 024°56'0 0.0
2017-Apr-25 10:00N 37°26' E 024°56'0 0.0
2017-Apr-25 09:30N 37°26' E 024°56'0 0.0
2017-Apr-25 09:00N 37°26' E 024°56'0 0.0
2017-Apr-25 08:30N 37°26' E 024°56'0 0.0
2017-Apr-25 08:00N 37°26' E 024°56'0 0.0
2017-Apr-25 07:30N 37°26' E 024°56'0 0.0
2017-Apr-25 07:00N 37°26' E 024°56'0 0.0
2017-Apr-25 06:30N 37°26' E 024°56'0 0.0
2017-Apr-25 05:58N 37°26' E 024°56'0 0.0
2017-Apr-25 05:30N 37°26' E 024°56'0 0.0
2017-Apr-25 05:00N 37°26' E 024°56'0 0.0
2017-Apr-25 04:30N 37°26' E 024°56'0 0.0
2017-Apr-25 04:00N 37°26' E 024°56'0 0.0
2017-Apr-25 03:30N 37°26' E 024°56'4 7.2
2017-Apr-25 02:58N 37°27' E 025°01'4 8.6
2017-Apr-25 02:30N 37°28' E 025°06'4 8.6
2017-Apr-25 02:00N 37°29' E 025°11'4 8.9
2017-Apr-25 01:30N 37°30' E 025°16'4 8.7
2017-Apr-25 01:00N 37°31' E 025°22'4 8.2
2017-Apr-25 00:30N 37°33' E 025°27'4 8.2
2017-Apr-25 00:00N 37°34' E 025°32'4 8.3
2017-Apr-24 23:30N 37°35' E 025°37'4 7.7
2017-Apr-24 23:00N 37°36' E 025°41'4 7.6
2017-Apr-24 22:29N 37°36' E 025°46'4 8.0
2017-Apr-24 22:00N 37°37' E 025°51'  
2017-Apr-21 14:45N 37°45' E 025°47'2 7.2
2017-Apr-21 14:29N 37°43' E 025°46'6 6.6
2017-Apr-21 13:30N 37°38' E 025°42'3 6.4
2017-Apr-21 12:59N 37°35' E 025°39'3 6.6
2017-Apr-21 12:30N 37°32' E 025°37'3 6.5
2017-Apr-21 12:00N 37°30' E 025°34'3 6.7
2017-Apr-21 11:30N 37°27' E 025°32'4 7.4
2017-Apr-21 11:00N 37°24' E 025°29'4 7.6
2017-Apr-21 10:30N 37°22' E 025°26'4 7.8
2017-Apr-21 10:00N 37°19' E 025°22'510.6
2017-Apr-21 09:30N 37°15' E 025°17'2 5.0
2017-Apr-21 09:00N 37°13' E 025°15'4 7.9
2017-Apr-21 08:30N 37°10' E 025°12'4 8.3
2017-Apr-21 08:00N 37°07' E 025°08'2 0.2
2017-Apr-20 20:26N 37°05' E 025°09'1 2.2
2017-Apr-20 20:00N 37°06' E 025°07'4 5.0
2017-Apr-20 19:13N 37°09' E 025°10'1 5.4
2017-Apr-20 19:00N 37°09' E 025°12'3 5.1
2017-Apr-20 18:30N 37°10' E 025°15'3 5.5
2017-Apr-20 18:00N 37°10' E 025°18'3 5.7
2017-Apr-20 17:30N 37°08' E 025°20'2 4.2
2017-Apr-20 17:00N 37°06' E 025°22'0 0.0
2017-Apr-20 16:30N 37°06' E 025°22'0 0.0
2017-Apr-20 16:00N 37°06' E 025°22'0 0.0
2017-Apr-20 15:29N 37°06' E 025°22'1 1.2
2017-Apr-20 15:00N 37°06' E 025°22'0 0.7
2017-Apr-20 14:30N 37°06' E 025°22'0 0.2
2017-Apr-20 13:30N 37°06' E 025°22'0 0.4
2017-Apr-20 13:00N 37°06' E 025°22'1 1.1
2017-Apr-20 12:30N 37°07' E 025°22'0 0.3
2017-Apr-20 12:00N 37°07' E 025°22'2 5.0
2017-Apr-20 11:30N 37°09' E 025°21'3 5.4
2017-Apr-20 11:00N 37°11' E 025°19'4 7.3
2017-Apr-20 10:30N 37°15' E 025°17'4 7.3
2017-Apr-20 10:00N 37°18' E 025°15'4 7.1
2017-Apr-20 09:30N 37°21' E 025°13'4 7.2
2017-Apr-20 09:00N 37°24' E 025°11'4 7.5
2017-Apr-20 08:30N 37°28' E 025°10'4 7.8
2017-Apr-20 08:00N 37°32' E 025°09'0 0.9
2017-Apr-20 07:30N 37°32' E 025°09'0 0.0
2017-Apr-20 07:00N 37°32' E 025°09'0 0.0
2017-Apr-20 06:30N 37°32' E 025°09'0 0.0
2017-Apr-20 06:00N 37°32' E 025°09'0 0.0
2017-Apr-20 05:30N 37°32' E 025°09'0 0.0
2017-Apr-20 05:00N 37°32' E 025°09'1 1.1
2017-Apr-20 04:30N 37°32' E 025°09'4 8.0
2017-Apr-20 04:00N 37°29' E 025°05'4 8.1
2017-Apr-20 03:30N 37°27' E 025°00'4 7.1
2017-Apr-20 03:00N 37°26' E 024°56'0 0.0
2017-Apr-20 02:30N 37°26' E 024°56'0 0.0
2017-Apr-20 02:00N 37°26' E 024°56'0 0.0
2017-Apr-20 01:30N 37°26' E 024°56'0 0.0
2017-Apr-20 01:00N 37°26' E 024°56'0 0.0
2017-Apr-20 00:30N 37°26' E 024°56'0 0.0
2017-Apr-20 00:00N 37°26' E 024°56'0 0.0
2017-Apr-19 23:30N 37°26' E 024°56'0 0.0
2017-Apr-19 23:00N 37°26' E 024°56'0 0.0
2017-Apr-19 22:30N 37°26' E 024°56'0 0.0
2017-Apr-19 22:00N 37°26' E 024°56'0 0.0
2017-Apr-19 21:30N 37°26' E 024°56'0 0.0
2017-Apr-19 21:00N 37°26' E 024°56'0 0.0
2017-Apr-19 20:30N 37°26' E 024°56'0 0.0
2017-Apr-19 20:00N 37°26' E 024°56'0 0.0
2017-Apr-19 19:30N 37°26' E 024°56'0 0.0
2017-Apr-19 19:00N 37°26' E 024°56'0 0.0
2017-Apr-19 18:30N 37°26' E 024°56'0 0.0
2017-Apr-19 18:00N 37°26' E 024°56'0 0.0
2017-Apr-19 17:30N 37°26' E 024°56'0 0.0
2017-Apr-19 17:00N 37°26' E 024°56'0 0.0
2017-Apr-19 16:30N 37°26' E 024°56'0 0.0
2017-Apr-19 15:59N 37°26' E 024°56'0 0.0
2017-Apr-19 15:30N 37°26' E 024°56'0 0.0
2017-Apr-19 14:59N 37°26' E 024°56'0 0.0
2017-Apr-19 14:30N 37°26' E 024°56'0 0.0
2017-Apr-19 13:30N 37°26' E 024°56'0 0.0
2017-Apr-19 13:00N 37°26' E 024°56'0 0.0
2017-Apr-19 12:30N 37°26' E 024°56'0 0.0
2017-Apr-19 11:59N 37°26' E 024°56'0 0.0
2017-Apr-19 11:30N 37°26' E 024°56'0 0.0
2017-Apr-19 11:00N 37°26' E 024°56'0 0.0
2017-Apr-19 10:30N 37°26' E 024°56'0 0.0
2017-Apr-19 10:00N 37°26' E 024°56'0 0.0
2017-Apr-19 09:30N 37°26' E 024°56'0 0.0
2017-Apr-19 09:00N 37°26' E 024°56'0 0.0
2017-Apr-19 08:30N 37°26' E 024°56'0 0.0
2017-Apr-19 08:00N 37°26' E 024°56'0 0.0
2017-Apr-19 07:30N 37°26' E 024°56'0 0.0
2017-Apr-19 07:00N 37°26' E 024°56'0 0.0
2017-Apr-19 06:30N 37°26' E 024°56'0 0.0
2017-Apr-19 06:00N 37°26' E 024°56'0 0.0
2017-Apr-19 05:30N 37°26' E 024°56'0 0.0
2017-Apr-19 05:00N 37°26' E 024°56'0 0.0
2017-Apr-19 04:30N 37°26' E 024°56'0 0.0
2017-Apr-19 04:00N 37°26' E 024°56'0 0.0
2017-Apr-19 03:30N 37°26' E 024°56'0 0.0
2017-Apr-19 03:00N 37°26' E 024°56'0 0.0
2017-Apr-19 02:30N 37°26' E 024°56'0 0.0
2017-Apr-19 02:00N 37°26' E 024°56'0 0.0
2017-Apr-19 01:30N 37°26' E 024°56'0 0.0
2017-Apr-19 01:00N 37°26' E 024°56'0 0.0
2017-Apr-19 00:30N 37°26' E 024°56'0 0.0
2017-Apr-19 00:00N 37°26' E 024°56'0 0.0
2017-Apr-18 23:30N 37°26' E 024°56'0 0.0
2017-Apr-18 23:00N 37°26' E 024°56'0 0.0
2017-Apr-18 22:30N 37°26' E 024°56'0 0.0
2017-Apr-18 22:00N 37°26' E 024°56'0 0.0
2017-Apr-18 21:30N 37°26' E 024°56'0 0.0
2017-Apr-18 21:00N 37°26' E 024°56'0 0.0
2017-Apr-18 20:30N 37°26' E 024°56'0 0.0
2017-Apr-18 20:00N 37°26' E 024°56'0 0.0
2017-Apr-18 19:30N 37°26' E 024°56'0 0.0
2017-Apr-18 19:00N 37°26' E 024°56'0 0.0
2017-Apr-18 18:30N 37°26' E 024°56'0 0.0
2017-Apr-18 18:00N 37°26' E 024°56'3 6.2
2017-Apr-18 17:30N 37°29' E 024°58'4 8.7
2017-Apr-18 17:00N 37°33' E 024°56'4 8.8
2017-Apr-18 16:30N 37°37' E 024°53'5 8.6
2017-Apr-18 15:55N 37°41' E 024°50'  
Track history (hours):
 
Tides and Currents Weather Stations Pressure Air Temp Water Temp Dewpoint Dewpoint Depression Visibility Wind Speed Wind Dir Waves Ship Positions

Agios Georgios I

Last reported at 2017-Apr-26 00:17 UTC. Time now 2017-Apr-26 15:49 UTC.
Position N 38°03' E 024°39'.

Length 59 m; draft 5 m.

Type: Ship (hazmat cat B). MMSI: 239912000.

Date/timePositionNaut miles runAvg speedWind from/ knotsBaromVisibWave heightAir tempDewpointWater temp
2017-Apr-26 00:17N 38°03' E 024°39'3 9.0
2017-Apr-25 23:58N 37°60' E 024°40'4 9.0
2017-Apr-25 23:30N 37°56' E 024°40'4 7.9
2017-Apr-25 23:00N 37°52' E 024°42'1 0.3
2017-Apr-25 17:40N 37°53' E 024°44'1 8.5
2017-Apr-25 17:30N 37°52' E 024°44'4 8.9
2017-Apr-25 17:00N 37°47' E 024°45'11 9.2
2017-Apr-25 15:46N 37°37' E 024°52'2 8.9
2017-Apr-25 15:30N 37°35' E 024°54'4 9.1
2017-Apr-25 15:00N 37°31' E 024°56'5 5.3
2017-Apr-25 14:00N 37°26' E 024°56'0 0.0
2017-Apr-25 13:30N 37°26' E 024°56'0 0.0
2017-Apr-25 13:00N 37°26' E 024°56'0 0.0
2017-Apr-25 12:30N 37°26' E 024°56'0 0.0
2017-Apr-25 12:00N 37°26' E 024°56'0 0.0
2017-Apr-25 11:28N 37°26' E 024°56'0 0.0
2017-Apr-25 10:59N 37°26' E 024°56'0 0.0
2017-Apr-25 10:30N 37°26' E 024°56'0 0.0
2017-Apr-25 10:00N 37°26' E 024°56'0 0.0
2017-Apr-25 09:30N 37°26' E 024°56'0 0.0
2017-Apr-25 09:00N 37°26' E 024°56'0 0.0
2017-Apr-25 08:30N 37°26' E 024°56'0 0.0
2017-Apr-25 08:00N 37°26' E 024°56'0 0.0
2017-Apr-25 07:30N 37°26' E 024°56'0 0.0
2017-Apr-25 07:00N 37°26' E 024°56'0 0.0
2017-Apr-25 06:30N 37°26' E 024°56'0 0.0
2017-Apr-25 05:58N 37°26' E 024°56'0 0.0
2017-Apr-25 05:30N 37°26' E 024°56'0 0.0
2017-Apr-25 05:00N 37°26' E 024°56'0 0.0
2017-Apr-25 04:30N 37°26' E 024°56'0 0.0
2017-Apr-25 04:00N 37°26' E 024°56'0 0.0
2017-Apr-25 03:30N 37°26' E 024°56'4 7.2
2017-Apr-25 02:58N 37°27' E 025°01'4 8.6
2017-Apr-25 02:30N 37°28' E 025°06'4 8.6
2017-Apr-25 02:00N 37°29' E 025°11'4 8.9
2017-Apr-25 01:30N 37°30' E 025°16'4 8.7
2017-Apr-25 01:00N 37°31' E 025°22'4 8.2
2017-Apr-25 00:30N 37°33' E 025°27'4 8.2
2017-Apr-25 00:00N 37°34' E 025°32'4 8.3
2017-Apr-24 23:30N 37°35' E 025°37'4 7.7
2017-Apr-24 23:00N 37°36' E 025°41'4 7.6
2017-Apr-24 22:29N 37°36' E 025°46'4 8.0
2017-Apr-24 22:00N 37°37' E 025°51'  
2017-Apr-21 14:45N 37°45' E 025°47'2 7.2
2017-Apr-21 14:29N 37°43' E 025°46'6 6.6
2017-Apr-21 13:30N 37°38' E 025°42'3 6.4
2017-Apr-21 12:59N 37°35' E 025°39'3 6.6
2017-Apr-21 12:30N 37°32' E 025°37'3 6.5
2017-Apr-21 12:00N 37°30' E 025°34'3 6.7
2017-Apr-21 11:30N 37°27' E 025°32'4 7.4
2017-Apr-21 11:00N 37°24' E 025°29'4 7.6
2017-Apr-21 10:30N 37°22' E 025°26'4 7.8
2017-Apr-21 10:00N 37°19' E 025°22'510.6
2017-Apr-21 09:30N 37°15' E 025°17'2 5.0
2017-Apr-21 09:00N 37°13' E 025°15'4 7.9
2017-Apr-21 08:30N 37°10' E 025°12'4 8.3
2017-Apr-21 08:00N 37°07' E 025°08'2 0.2
2017-Apr-20 20:26N 37°05' E 025°09'1 2.2
2017-Apr-20 20:00N 37°06' E 025°07'4 5.0
2017-Apr-20 19:13N 37°09' E 025°10'1 5.4
2017-Apr-20 19:00N 37°09' E 025°12'3 5.1
2017-Apr-20 18:30N 37°10' E 025°15'3 5.5
2017-Apr-20 18:00N 37°10' E 025°18'3 5.7
2017-Apr-20 17:30N 37°08' E 025°20'2 4.2
2017-Apr-20 17:00N 37°06' E 025°22'0 0.0
2017-Apr-20 16:30N 37°06' E 025°22'0 0.0
2017-Apr-20 16:00N 37°06' E 025°22'0 0.0
2017-Apr-20 15:29N 37°06' E 025°22'1 1.2
2017-Apr-20 15:00N 37°06' E 025°22'0 0.7
2017-Apr-20 14:30N 37°06' E 025°22'0 0.2
2017-Apr-20 13:30N 37°06' E 025°22'0 0.4
2017-Apr-20 13:00N 37°06' E 025°22'1 1.1
2017-Apr-20 12:30N 37°07' E 025°22'0 0.3
2017-Apr-20 12:00N 37°07' E 025°22'2 5.0
2017-Apr-20 11:30N 37°09' E 025°21'3 5.4
2017-Apr-20 11:00N 37°11' E 025°19'4 7.3
2017-Apr-20 10:30N 37°15' E 025°17'4 7.3
2017-Apr-20 10:00N 37°18' E 025°15'4 7.1
2017-Apr-20 09:30N 37°21' E 025°13'4 7.2
2017-Apr-20 09:00N 37°24' E 025°11'4 7.5
2017-Apr-20 08:30N 37°28' E 025°10'4 7.8
2017-Apr-20 08:00N 37°32' E 025°09'0 0.9
2017-Apr-20 07:30N 37°32' E 025°09'0 0.0
2017-Apr-20 07:00N 37°32' E 025°09'0 0.0
2017-Apr-20 06:30N 37°32' E 025°09'0 0.0
2017-Apr-20 06:00N 37°32' E 025°09'0 0.0
2017-Apr-20 05:30N 37°32' E 025°09'0 0.0
2017-Apr-20 05:00N 37°32' E 025°09'1 1.1
2017-Apr-20 04:30N 37°32' E 025°09'4 8.0
2017-Apr-20 04:00N 37°29' E 025°05'4 8.1
2017-Apr-20 03:30N 37°27' E 025°00'4 7.1
2017-Apr-20 03:00N 37°26' E 024°56'0 0.0
2017-Apr-20 02:30N 37°26' E 024°56'0 0.0
2017-Apr-20 02:00N 37°26' E 024°56'0 0.0
2017-Apr-20 01:30N 37°26' E 024°56'0 0.0
2017-Apr-20 01:00N 37°26' E 024°56'0 0.0
2017-Apr-20 00:30N 37°26' E 024°56'0 0.0
2017-Apr-20 00:00N 37°26' E 024°56'0 0.0
2017-Apr-19 23:30N 37°26' E 024°56'0 0.0
2017-Apr-19 23:00N 37°26' E 024°56'0 0.0
2017-Apr-19 22:30N 37°26' E 024°56'0 0.0
2017-Apr-19 22:00N 37°26' E 024°56'0 0.0
2017-Apr-19 21:30N 37°26' E 024°56'0 0.0
2017-Apr-19 21:00N 37°26' E 024°56'0 0.0
2017-Apr-19 20:30N 37°26' E 024°56'0 0.0
2017-Apr-19 20:00N 37°26' E 024°56'0 0.0
2017-Apr-19 19:30N 37°26' E 024°56'0 0.0
2017-Apr-19 19:00N 37°26' E 024°56'0 0.0
2017-Apr-19 18:30N 37°26' E 024°56'0 0.0
2017-Apr-19 18:00N 37°26' E 024°56'0 0.0
2017-Apr-19 17:30N 37°26' E 024°56'0 0.0
2017-Apr-19 17:00N 37°26' E 024°56'0 0.0
2017-Apr-19 16:30N 37°26' E 024°56'0 0.0
2017-Apr-19 15:59N 37°26' E 024°56'0 0.0
2017-Apr-19 15:30N 37°26' E 024°56'0 0.0
2017-Apr-19 14:59N 37°26' E 024°56'0 0.0
2017-Apr-19 14:30N 37°26' E 024°56'0 0.0
2017-Apr-19 13:30N 37°26' E 024°56'0 0.0
2017-Apr-19 13:00N 37°26' E 024°56'0 0.0
2017-Apr-19 12:30N 37°26' E 024°56'0 0.0
2017-Apr-19 11:59N 37°26' E 024°56'0 0.0
2017-Apr-19 11:30N 37°26' E 024°56'0 0.0
2017-Apr-19 11:00N 37°26' E 024°56'0 0.0
2017-Apr-19 10:30N 37°26' E 024°56'0 0.0
2017-Apr-19 10:00N 37°26' E 024°56'0 0.0
2017-Apr-19 09:30N 37°26' E 024°56'0 0.0
2017-Apr-19 09:00N 37°26' E 024°56'0 0.0
2017-Apr-19 08:30N 37°26' E 024°56'0 0.0
2017-Apr-19 08:00N 37°26' E 024°56'0 0.0
2017-Apr-19 07:30N 37°26' E 024°56'0 0.0
2017-Apr-19 07:00N 37°26' E 024°56'0 0.0
2017-Apr-19 06:30N 37°26' E 024°56'0 0.0
2017-Apr-19 06:00N 37°26' E 024°56'0 0.0
2017-Apr-19 05:30N 37°26' E 024°56'0 0.0
2017-Apr-19 05:00N 37°26' E 024°56'0 0.0
2017-Apr-19 04:30N 37°26' E 024°56'0 0.0
2017-Apr-19 04:00N 37°26' E 024°56'0 0.0
2017-Apr-19 03:30N 37°26' E 024°56'0 0.0
2017-Apr-19 03:00N 37°26' E 024°56'0 0.0
2017-Apr-19 02:30N 37°26' E 024°56'0 0.0
2017-Apr-19 02:00N 37°26' E 024°56'0 0.0
2017-Apr-19 01:30N 37°26' E 024°56'0 0.0
2017-Apr-19 01:00N 37°26' E 024°56'0 0.0
2017-Apr-19 00:30N 37°26' E 024°56'0 0.0
2017-Apr-19 00:00N 37°26' E 024°56'0 0.0
2017-Apr-18 23:30N 37°26' E 024°56'0 0.0
2017-Apr-18 23:00N 37°26' E 024°56'0 0.0
2017-Apr-18 22:30N 37°26' E 024°56'0 0.0
2017-Apr-18 22:00N 37°26' E 024°56'0 0.0
2017-Apr-18 21:30N 37°26' E 024°56'0 0.0
2017-Apr-18 21:00N 37°26' E 024°56'0 0.0
2017-Apr-18 20:30N 37°26' E 024°56'0 0.0
2017-Apr-18 20:00N 37°26' E 024°56'0 0.0
2017-Apr-18 19:30N 37°26' E 024°56'0 0.0
2017-Apr-18 19:00N 37°26' E 024°56'0 0.0
2017-Apr-18 18:30N 37°26' E 024°56'0 0.0
2017-Apr-18 18:00N 37°26' E 024°56'3 6.2
2017-Apr-18 17:30N 37°29' E 024°58'4 8.7
2017-Apr-18 17:00N 37°33' E 024°56'4 8.8
2017-Apr-18 16:30N 37°37' E 024°53'5 8.6
2017-Apr-18 15:55N 37°41' E 024°50'  

Dump ship's entire track history